createdAt,value
2022-12-12T00:01:20.414Z,17.13
2022-12-12T00:03:45.040Z,15.82
2022-12-12T00:06:11.067Z,18.15
2022-12-12T00:08:36.905Z,16.58
2022-12-12T00:11:01.223Z,16.48
2022-12-12T00:13:25.745Z,16.60
2022-12-12T00:15:50.145Z,16.55
2022-12-12T00:18:14.557Z,17.70
2022-12-12T00:20:38.984Z,16.48
2022-12-12T00:23:06.111Z,15.45
2022-12-12T00:25:30.522Z,18.13
2022-12-12T00:27:54.831Z,17.67
2022-12-12T00:30:19.459Z,17.25
2022-12-12T00:32:43.795Z,18.02
2022-12-12T00:35:09.240Z,17.27
2022-12-12T00:37:33.768Z,17.77
2022-12-12T00:39:59.872Z,18.52
2022-12-12T00:42:24.295Z,16.73
2022-12-12T00:44:48.825Z,17.00
2022-12-12T00:47:13.412Z,16.77
2022-12-12T00:49:37.798Z,16.33
2022-12-12T00:52:02.295Z,16.52
2022-12-12T00:54:26.937Z,17.20
2022-12-12T00:56:52.865Z,18.35
2022-12-12T00:59:17.176Z,17.65
2022-12-12T01:01:42.948Z,16.95
2022-12-12T01:04:07.584Z,18.13
2022-12-12T01:06:32.343Z,19.08
2022-12-12T01:08:56.888Z,18.38
2022-12-12T01:11:21.891Z,16.70
2022-12-12T01:13:49.610Z,18.73
2022-12-12T01:16:14.412Z,17.98
2022-12-12T01:18:39.744Z,17.10
2022-12-12T01:21:04.771Z,16.48
2022-12-12T01:23:29.196Z,17.90
2022-12-12T01:26:01.913Z,17.83
2022-12-12T01:28:26.340Z,18.48
2022-12-12T01:30:52.275Z,17.35
2022-12-12T01:33:16.733Z,17.42
2022-12-12T01:35:42.373Z,17.58
2022-12-12T01:38:07.777Z,17.08
2022-12-12T01:40:32.609Z,15.63
2022-12-12T01:42:57.108Z,17.25
2022-12-12T01:45:58.990Z,16.70
2022-12-12T01:48:27.806Z,17.45
2022-12-12T01:50:52.905Z,16.05
2022-12-12T01:53:19.573Z,16.10
2022-12-12T01:55:44.134Z,15.75
2022-12-12T01:58:08.730Z,17.67
2022-12-12T02:00:33.924Z,16.10
2022-12-12T02:02:58.766Z,16.38
2022-12-12T02:05:28.585Z,16.58
2022-12-12T02:10:17.655Z,15.15
2022-12-12T02:12:42.308Z,16.58
2022-12-12T02:15:07.639Z,16.67
2022-12-12T02:18:03.570Z,16.67
2022-12-12T02:20:51.881Z,17.38
2022-12-12T02:23:49.656Z,16.33
2022-12-12T02:26:43.359Z,18.48
2022-12-12T02:29:41.227Z,17.17
2022-12-12T02:32:16.000Z,16.35
2022-12-12T02:34:49.846Z,16.90
2022-12-12T02:37:22.204Z,16.35
2022-12-12T02:39:56.397Z,17.58
2022-12-12T02:42:26.708Z,16.33
2022-12-12T02:44:56.545Z,15.98
2022-12-12T02:47:28.065Z,15.20
2022-12-12T02:49:56.856Z,15.40
2022-12-12T02:52:22.017Z,17.13
2022-12-12T02:54:46.635Z,16.05
2022-12-12T02:57:15.597Z,15.65
2022-12-12T02:59:43.324Z,15.60
2022-12-12T03:02:44.571Z,16.23
2022-12-12T03:05:53.876Z,15.45
2022-12-12T03:08:37.405Z,15.95
2022-12-12T03:11:07.320Z,16.75
2022-12-12T03:13:41.395Z,15.35
2022-12-12T03:16:19.350Z,15.57
2022-12-12T03:18:51.480Z,16.75
2022-12-12T03:21:23.212Z,16.65
2022-12-12T03:23:54.567Z,16.75
2022-12-12T03:26:23.302Z,15.75
2022-12-12T03:28:50.466Z,15.43
2022-12-12T03:31:18.484Z,16.58
2022-12-12T03:33:47.113Z,17.13
2022-12-12T03:36:16.261Z,16.00
2022-12-12T03:38:48.387Z,15.73
2022-12-12T03:41:20.335Z,16.58
2022-12-12T03:43:51.346Z,16.33
2022-12-12T03:46:20.213Z,16.25
2022-12-12T03:48:47.574Z,17.63
2022-12-12T03:51:17.276Z,15.98
2022-12-12T03:53:47.907Z,15.68
2022-12-12T03:56:18.926Z,16.35
2022-12-12T03:58:50.201Z,17.58
2022-12-12T04:01:16.194Z,16.33
2022-12-12T04:03:49.207Z,16.42
2022-12-12T04:06:28.643Z,16.85
2022-12-12T04:09:14.640Z,16.52
2022-12-12T04:12:03.353Z,16.13
2022-12-12T04:14:42.286Z,16.55
2022-12-12T04:17:10.206Z,16.40
2022-12-12T04:19:55.021Z,15.50
2022-12-12T04:22:42.072Z,16.25
2022-12-12T04:25:13.656Z,15.10
2022-12-12T04:27:44.660Z,16.63
2022-12-12T04:30:12.320Z,16.65
2022-12-12T04:32:42.127Z,17.10
2022-12-12T04:35:10.553Z,16.98
2022-12-12T04:37:40.325Z,15.70
2022-12-12T04:40:10.385Z,16.05
2022-12-12T04:42:39.698Z,15.80
2022-12-12T04:45:10.124Z,16.35
2022-12-12T04:47:37.739Z,15.93
2022-12-12T04:50:04.781Z,16.13
2022-12-12T04:52:32.458Z,16.95
2022-12-12T04:55:01.520Z,15.98
2022-12-12T04:57:35.092Z,17.05
2022-12-12T05:00:01.063Z,14.43
2022-12-12T05:02:33.700Z,15.52
2022-12-12T05:05:01.612Z,15.82
2022-12-12T05:07:39.465Z,15.95
2022-12-12T05:10:07.585Z,16.65
2022-12-12T05:12:41.383Z,16.92
2022-12-12T05:15:07.079Z,17.20
2022-12-12T05:17:39.566Z,16.17
2022-12-12T05:20:04.051Z,17.15
2022-12-12T05:22:28.434Z,16.60
2022-12-12T05:24:52.769Z,18.85
2022-12-12T05:27:17.074Z,17.38
2022-12-12T05:29:43.150Z,16.88
2022-12-12T05:32:07.489Z,16.92
2022-12-12T05:34:31.975Z,16.95
2022-12-12T05:36:56.564Z,16.85
2022-12-12T05:39:21.146Z,16.83
2022-12-12T05:41:45.442Z,18.83
2022-12-12T05:44:09.907Z,16.65
2022-12-12T05:46:35.636Z,16.60
2022-12-12T05:49:00.304Z,16.73
2022-12-12T05:51:24.617Z,16.38
2022-12-12T05:53:49.016Z,16.77
2022-12-12T05:56:13.513Z,18.05
2022-12-12T05:58:37.948Z,15.30
2022-12-12T06:01:05.151Z,16.27
2022-12-12T06:03:31.122Z,16.83
2022-12-12T06:05:55.539Z,14.98
2022-12-12T06:08:24.895Z,17.20
2022-12-12T06:10:49.683Z,17.42
2022-12-12T06:13:14.108Z,16.42
2022-12-12T06:15:41.478Z,15.65
2022-12-12T06:18:05.903Z,16.92
2022-12-12T06:20:32.533Z,16.30
2022-12-12T06:22:57.289Z,16.05
2022-12-12T06:25:21.752Z,16.75
2022-12-12T06:27:46.177Z,17.17
2022-12-12T06:30:11.754Z,14.98
2022-12-12T06:32:36.070Z,16.10
2022-12-12T06:35:00.566Z,15.85
2022-12-12T06:37:26.432Z,14.60
2022-12-12T06:39:51.765Z,15.52
2022-12-12T06:42:16.290Z,14.85
2022-12-12T06:44:40.797Z,15.80
2022-12-12T06:47:06.738Z,15.57
2022-12-12T06:49:31.227Z,14.95
2022-12-12T06:51:55.737Z,15.40
2022-12-12T06:54:22.008Z,13.52
2022-12-12T06:56:48.772Z,13.82
2022-12-12T06:59:15.245Z,14.32
2022-12-12T07:01:40.170Z,13.32
2022-12-12T07:04:04.999Z,13.57
2022-12-12T07:06:29.630Z,13.75
2022-12-12T07:08:54.552Z,14.10
2022-12-12T07:11:22.976Z,14.50
2022-12-12T07:13:47.593Z,13.85
2022-12-12T07:16:12.344Z,14.57
2022-12-12T07:18:37.075Z,14.15
2022-12-12T07:21:04.934Z,15.10
2022-12-12T07:23:29.301Z,14.07
2022-12-12T07:25:55.882Z,14.13
2022-12-12T07:28:22.022Z,14.77
2022-12-12T07:30:48.302Z,15.07
2022-12-12T07:33:14.421Z,14.48
2022-12-12T07:35:38.942Z,13.90
2022-12-12T07:38:04.694Z,13.82
2022-12-12T07:40:29.481Z,12.63
2022-12-12T07:42:54.075Z,14.70
2022-12-12T07:45:20.688Z,14.55
2022-12-12T07:47:45.578Z,13.95
2022-12-12T07:50:11.561Z,14.25
2022-12-12T07:52:36.485Z,13.10
2022-12-12T07:55:02.521Z,13.38
2022-12-12T07:57:27.970Z,13.88
2022-12-12T07:59:52.322Z,12.52
2022-12-12T08:02:19.047Z,13.43
2022-12-12T08:04:43.518Z,14.60
2022-12-12T08:07:08.727Z,14.25
2022-12-12T08:09:33.535Z,14.25
2022-12-12T08:11:58.929Z,14.25
2022-12-12T08:14:23.675Z,14.85
2022-12-12T08:16:48.036Z,14.07
2022-12-12T08:19:13.718Z,13.77
2022-12-12T08:21:39.105Z,12.43
2022-12-12T08:24:04.348Z,13.65
2022-12-12T08:26:29.424Z,13.23
2022-12-12T08:28:54.460Z,13.75
2022-12-12T08:31:20.595Z,13.38
2022-12-12T08:33:45.239Z,14.05
2022-12-12T08:36:16.966Z,13.15
2022-12-12T08:38:41.343Z,13.30
2022-12-12T08:41:05.931Z,14.13
2022-12-12T08:43:30.619Z,13.20
2022-12-12T08:46:01.372Z,13.18
2022-12-12T08:48:25.857Z,14.00
2022-12-12T08:50:52.870Z,14.10
2022-12-12T08:53:18.622Z,12.88
2022-12-12T08:55:43.029Z,14.00
2022-12-12T08:58:07.430Z,13.57
2022-12-12T09:00:31.799Z,13.45
2022-12-12T09:02:56.307Z,13.00
2022-12-12T09:05:20.678Z,14.05
2022-12-12T09:07:45.087Z,12.98
2022-12-12T09:10:11.550Z,13.60
2022-12-12T09:12:41.709Z,13.45
2022-12-12T09:15:09.077Z,13.10
2022-12-12T09:17:33.519Z,13.80
2022-12-12T09:19:57.921Z,14.55
2022-12-12T09:22:22.272Z,13.48
2022-12-12T09:24:46.677Z,12.80
2022-12-12T09:27:12.456Z,13.02
2022-12-12T09:29:36.935Z,13.18
2022-12-12T09:32:06.380Z,12.48
2022-12-12T09:34:31.231Z,12.40
2022-12-12T09:36:55.540Z,11.88
2022-12-12T09:39:20.098Z,12.75
2022-12-12T09:41:44.803Z,13.43
2022-12-12T09:44:15.947Z,13.02
2022-12-12T09:46:44.599Z,11.88
2022-12-12T09:49:15.668Z,12.23
2022-12-12T09:51:40.750Z,11.95
2022-12-12T09:54:05.449Z,12.75
2022-12-12T09:56:36.246Z,12.63
2022-12-12T09:59:06.524Z,11.98
2022-12-12T10:01:36.057Z,11.80
2022-12-12T10:04:11.491Z,11.80
2022-12-12T10:06:42.615Z,11.35
2022-12-12T10:09:27.515Z,10.82
2022-12-12T10:11:54.942Z,11.20
2022-12-12T10:14:22.381Z,13.00
2022-12-12T10:16:53.917Z,11.50
2022-12-12T10:19:26.643Z,11.32
2022-12-12T10:21:54.161Z,10.57
2022-12-12T10:24:31.786Z,10.25
2022-12-12T10:26:56.186Z,10.68
2022-12-12T10:29:22.205Z,9.95
2022-12-12T10:31:59.732Z,10.30
2022-12-12T10:34:43.411Z,10.55
2022-12-12T10:37:26.288Z,11.98
2022-12-12T10:40:00.616Z,10.98
2022-12-12T10:42:31.233Z,11.27
2022-12-12T10:45:25.321Z,10.85
2022-12-12T10:47:51.603Z,9.77
2022-12-12T10:50:26.681Z,9.70
2022-12-12T10:52:51.569Z,10.70
2022-12-12T10:55:20.304Z,10.68
2022-12-12T10:57:45.246Z,9.98
2022-12-12T11:00:19.346Z,9.55
2022-12-12T11:02:46.668Z,11.45
2022-12-12T11:05:19.659Z,10.05
2022-12-12T11:07:46.402Z,10.05
2022-12-12T11:10:32.009Z,10.05
2022-12-12T11:13:03.762Z,9.10
2022-12-12T11:15:32.719Z,9.43
2022-12-12T11:18:04.259Z,9.93
2022-12-12T11:20:32.080Z,9.52
2022-12-12T11:22:58.523Z,8.48
2022-12-12T11:25:28.554Z,9.30
2022-12-12T11:30:25.891Z,8.20
2022-12-12T11:32:52.985Z,9.65
2022-12-12T11:35:25.267Z,8.95
2022-12-12T11:37:55.499Z,8.43
2022-12-12T11:40:25.561Z,9.23
2022-12-12T11:42:51.591Z,9.63
2022-12-12T11:45:23.785Z,9.70
2022-12-12T11:47:49.452Z,9.38
2022-12-12T11:50:20.596Z,10.48
2022-12-12T11:52:45.202Z,11.15
2022-12-12T11:55:16.332Z,10.13
2022-12-12T11:58:04.728Z,11.25
2022-12-12T12:00:37.302Z,10.60
2022-12-12T12:03:37.577Z,10.60
2022-12-12T12:06:19.308Z,9.32
2022-12-12T12:08:55.284Z,10.15
2022-12-12T12:11:30.405Z,9.80
2022-12-12T12:14:24.901Z,10.57
2022-12-12T12:16:59.581Z,11.23
2022-12-12T12:19:34.006Z,12.38
2022-12-12T12:22:08.950Z,12.90
2022-12-12T12:25:04.928Z,12.75
2022-12-12T12:27:39.608Z,12.63
2022-12-12T12:30:22.898Z,12.77
2022-12-12T12:33:02.686Z,15.30
2022-12-12T12:35:31.435Z,15.27
2022-12-12T12:38:10.799Z,13.40
2022-12-12T12:40:48.619Z,13.90
2022-12-12T12:43:43.532Z,14.38
2022-12-12T12:46:13.989Z,13.88
2022-12-12T12:48:42.321Z,14.32
2022-12-12T12:51:12.530Z,12.68
2022-12-12T12:53:41.763Z,12.23
2022-12-12T12:56:22.240Z,13.70
2022-12-12T12:58:52.946Z,12.23
2022-12-12T13:01:24.674Z,12.43
2022-12-12T13:03:55.772Z,12.13
2022-12-12T13:06:24.795Z,12.85
2022-12-12T13:08:59.219Z,11.73
2022-12-12T13:11:28.068Z,12.77
2022-12-12T13:14:00.750Z,13.10
2022-12-12T13:16:31.604Z,11.77
2022-12-12T13:19:04.942Z,12.43
2022-12-12T13:21:34.376Z,12.98
2022-12-12T13:24:03.948Z,14.93
2022-12-12T13:26:34.956Z,14.27
2022-12-12T13:29:05.241Z,14.30
2022-12-12T13:31:45.126Z,14.35
2022-12-12T13:34:12.851Z,13.90
2022-12-12T13:36:40.571Z,13.52
2022-12-12T13:39:09.009Z,14.27
2022-12-12T13:41:55.415Z,14.68
2022-12-12T13:44:36.942Z,14.38
2022-12-12T13:47:01.474Z,15.75
2022-12-12T13:49:36.156Z,16.98
2022-12-12T13:52:26.399Z,14.48
2022-12-12T13:54:51.977Z,16.80
2022-12-12T13:57:23.645Z,16.00
2022-12-12T14:00:27.838Z,16.55
2022-12-12T14:03:05.222Z,15.65
2022-12-12T14:05:32.649Z,17.48
2022-12-12T14:08:03.781Z,17.23
2022-12-12T14:10:33.006Z,17.33
2022-12-12T14:12:58.220Z,17.47
2022-12-12T14:15:28.582Z,17.17
2022-12-12T14:17:55.964Z,21.50
2022-12-12T14:20:30.022Z,21.70
2022-12-12T14:23:29.530Z,18.48
2022-12-12T14:25:54.737Z,18.63
2022-12-12T14:28:22.205Z,17.95
2022-12-12T14:30:56.794Z,16.73
2022-12-12T14:34:03.103Z,17.05
2022-12-12T14:36:44.704Z,16.63
2022-12-12T14:39:19.725Z,17.83
2022-12-12T14:41:46.909Z,17.75
2022-12-12T14:44:35.395Z,16.70
2022-12-12T14:47:09.152Z,16.92
2022-12-12T14:49:33.600Z,16.83
2022-12-12T14:51:59.927Z,16.45
2022-12-12T14:54:25.934Z,15.77
2022-12-12T14:56:53.359Z,16.65
2022-12-12T14:59:21.405Z,16.58
2022-12-12T15:01:48.878Z,17.52
2022-12-12T15:04:19.158Z,16.80
2022-12-12T15:06:44.258Z,18.50
2022-12-12T15:09:24.650Z,18.33
2022-12-12T15:11:50.951Z,17.20
2022-12-12T15:14:21.291Z,17.27
2022-12-12T15:16:50.435Z,16.17
2022-12-12T15:19:18.131Z,15.77
2022-12-12T15:21:44.245Z,15.95
2022-12-12T15:24:21.286Z,16.10
2022-12-12T15:26:47.360Z,17.35
2022-12-12T15:29:17.941Z,16.55
2022-12-12T15:31:45.354Z,15.55
2022-12-12T15:34:40.255Z,14.93
2022-12-12T15:37:30.725Z,14.75
2022-12-12T15:40:03.705Z,14.05
2022-12-12T15:42:28.776Z,13.48
2022-12-12T15:44:54.030Z,13.05
2022-12-12T15:47:19.009Z,13.77
2022-12-12T15:49:45.327Z,13.63
2022-12-12T15:52:11.832Z,13.32
2022-12-12T15:54:36.329Z,13.93
2022-12-12T15:57:02.270Z,14.85
2022-12-12T15:59:31.327Z,14.73
2022-12-12T16:01:55.748Z,13.18
2022-12-12T16:04:26.273Z,14.20
2022-12-12T16:06:51.283Z,13.52
2022-12-12T16:09:19.948Z,13.02
2022-12-12T16:11:47.040Z,12.00
2022-12-12T16:14:39.616Z,12.88
2022-12-12T16:17:08.249Z,12.23
2022-12-12T16:19:39.665Z,12.13
2022-12-12T16:22:07.600Z,11.98
2022-12-12T16:24:32.146Z,12.35
2022-12-12T16:26:59.754Z,12.93
2022-12-12T16:29:24.089Z,13.27
2022-12-12T16:31:50.359Z,12.65
2022-12-12T16:34:14.772Z,11.82
2022-12-12T16:36:42.196Z,10.48
2022-12-12T16:39:07.321Z,10.55
2022-12-12T16:41:32.071Z,11.60
2022-12-12T16:43:57.780Z,9.75
2022-12-12T16:46:24.757Z,10.68
2022-12-12T16:48:51.223Z,10.10
2022-12-12T16:51:19.827Z,10.15
2022-12-12T16:53:44.394Z,11.23
2022-12-12T16:56:11.370Z,12.65
2022-12-12T16:58:35.761Z,11.48
2022-12-12T17:01:01.837Z,11.55
2022-12-12T17:03:26.319Z,11.10
2022-12-12T17:05:52.955Z,10.82
2022-12-12T17:08:18.206Z,10.63
2022-12-12T17:10:43.260Z,11.02
2022-12-12T17:13:14.311Z,11.20
2022-12-12T17:15:38.726Z,10.55
2022-12-12T17:18:04.354Z,11.30
2022-12-12T17:20:37.885Z,11.63
2022-12-12T17:25:46.127Z,10.77
2022-12-12T17:28:14.374Z,10.70
2022-12-12T17:30:40.474Z,11.70
2022-12-12T17:33:20.137Z,11.60
2022-12-12T17:35:45.166Z,11.68
2022-12-12T17:38:15.903Z,12.43
2022-12-12T17:40:44.285Z,12.05
2022-12-12T17:43:08.657Z,12.30
2022-12-12T17:45:34.857Z,12.13
2022-12-12T17:47:59.414Z,12.32
2022-12-12T17:50:24.037Z,12.68
2022-12-12T17:52:48.445Z,12.50
2022-12-12T17:55:54.624Z,13.20
2022-12-12T17:57:58.813Z,12.20
2022-12-12T18:00:23.882Z,13.18
2022-12-12T18:02:49.040Z,13.10
2022-12-12T18:05:13.463Z,13.88
2022-12-12T18:07:37.992Z,13.60
2022-12-12T18:10:02.387Z,11.68
2022-12-12T18:12:29.309Z,12.30
2022-12-12T18:14:53.720Z,12.27
2022-12-12T18:17:18.059Z,13.30
2022-12-12T18:19:42.514Z,13.48
2022-12-12T18:22:07.008Z,12.63
2022-12-12T18:24:33.050Z,13.88
2022-12-12T18:27:03.529Z,13.52
2022-12-12T18:29:29.607Z,13.75
2022-12-12T18:31:54.692Z,13.45
2022-12-12T18:34:19.599Z,12.57
2022-12-12T18:36:44.096Z,11.93
2022-12-12T18:39:08.949Z,12.00
2022-12-12T18:41:33.839Z,11.60
2022-12-12T18:43:58.269Z,11.77
2022-12-12T18:46:26.718Z,11.23
2022-12-12T18:48:52.069Z,10.65
2022-12-12T18:51:18.363Z,10.60
2022-12-12T18:53:43.556Z,10.18
2022-12-12T18:56:09.219Z,10.32
2022-12-12T18:58:33.699Z,10.73
2022-12-12T19:01:04.951Z,11.18
2022-12-12T19:03:30.747Z,11.65
2022-12-12T19:05:55.080Z,13.13
2022-12-12T19:08:20.295Z,13.48
2022-12-12T19:10:46.546Z,13.00
2022-12-12T19:13:10.962Z,14.38
2022-12-12T19:15:36.256Z,13.88
2022-12-12T19:18:00.754Z,14.02
2022-12-12T19:20:26.890Z,15.65
2022-12-12T19:22:53.433Z,14.50
2022-12-12T19:25:19.105Z,15.95
2022-12-12T19:27:43.687Z,15.38
2022-12-12T19:30:09.148Z,15.40
2022-12-12T19:32:33.646Z,15.73
2022-12-12T19:34:59.462Z,17.40
2022-12-12T19:37:25.732Z,17.30
2022-12-12T19:39:52.310Z,18.48
2022-12-12T19:42:16.956Z,18.02
2022-12-12T19:44:43.717Z,18.10
2022-12-12T19:47:08.452Z,20.00
2022-12-12T19:49:33.158Z,18.55
2022-12-12T19:51:57.625Z,18.33
2022-12-12T19:54:23.704Z,19.75
2022-12-12T19:56:48.422Z,20.10
2022-12-12T19:59:14.159Z,19.30
2022-12-12T20:01:38.997Z,20.00
2022-12-12T20:04:05.670Z,18.75
2022-12-12T20:06:30.588Z,19.40
2022-12-12T20:08:55.698Z,20.48
2022-12-12T20:11:23.661Z,18.40
2022-12-12T20:13:50.029Z,18.23
2022-12-12T20:16:16.450Z,19.38
2022-12-12T20:18:41.631Z,19.88
2022-12-12T20:21:06.953Z,19.38
2022-12-12T20:23:31.879Z,18.95
2022-12-12T20:25:56.937Z,19.38
2022-12-12T20:28:23.213Z,18.45
2022-12-12T20:30:51.913Z,20.13
2022-12-12T20:33:17.867Z,19.83
2022-12-12T20:35:43.028Z,20.30
2022-12-12T20:38:07.835Z,19.38
2022-12-12T20:40:32.239Z,21.13
2022-12-12T20:43:03.034Z,19.95
2022-12-12T20:45:29.318Z,20.13
2022-12-12T20:47:53.659Z,21.45
2022-12-12T20:50:18.121Z,19.52
2022-12-12T20:52:42.473Z,20.65
2022-12-12T20:55:08.516Z,20.75
2022-12-12T20:57:32.924Z,18.65
2022-12-12T20:59:57.349Z,17.88
2022-12-12T21:02:28.631Z,19.60
2022-12-12T21:04:55.628Z,18.75
2022-12-12T21:07:20.006Z,19.20
2022-12-12T21:09:44.341Z,18.63
2022-12-12T21:12:09.110Z,18.50
2022-12-12T21:14:35.183Z,18.23
2022-12-12T21:16:59.572Z,18.42
2022-12-12T21:19:25.634Z,18.00
2022-12-12T21:21:50.465Z,18.60
2022-12-12T21:24:16.845Z,16.52
2022-12-12T21:26:42.409Z,17.73
2022-12-12T21:29:07.699Z,17.92
2022-12-12T21:31:34.909Z,18.50
2022-12-12T21:33:59.933Z,18.77
2022-12-12T21:36:26.533Z,18.92
2022-12-12T21:38:51.520Z,19.83
2022-12-12T21:41:17.934Z,18.50
2022-12-12T21:43:43.328Z,19.67
2022-12-12T21:46:10.435Z,18.88
2022-12-12T21:48:35.021Z,18.55
2022-12-12T21:51:01.952Z,21.60
2022-12-12T21:53:36.460Z,18.90
2022-12-12T21:56:05.544Z,20.33
2022-12-12T21:58:29.875Z,20.20
2022-12-12T22:00:54.486Z,18.83
2022-12-12T22:03:19.007Z,19.80
2022-12-12T22:05:44.042Z,19.23
2022-12-12T22:08:08.452Z,18.98
2022-12-12T22:10:37.522Z,19.23
2022-12-12T22:13:01.857Z,19.15
2022-12-12T22:15:26.339Z,19.98
2022-12-12T22:17:50.649Z,18.83
2022-12-12T22:20:15.056Z,19.40
2022-12-12T22:22:39.533Z,19.52
2022-12-12T22:25:04.043Z,19.42
2022-12-12T22:27:29.817Z,19.65
2022-12-12T22:29:54.833Z,18.77
2022-12-12T22:32:19.278Z,19.88
2022-12-12T22:34:43.670Z,18.13
2022-12-12T22:37:08.086Z,18.27
2022-12-12T22:39:32.394Z,17.73
2022-12-12T22:41:57.395Z,18.33
2022-12-12T22:44:24.743Z,16.98
2022-12-12T22:46:50.965Z,17.02
2022-12-12T22:49:16.686Z,18.45
2022-12-12T22:51:41.088Z,17.92
2022-12-12T22:54:06.710Z,17.10
2022-12-12T22:56:32.846Z,19.05
2022-12-12T22:58:57.155Z,18.25
2022-12-12T23:01:25.755Z,17.80
2022-12-12T23:03:50.360Z,18.15
2022-12-12T23:06:16.608Z,16.85
2022-12-12T23:08:41.072Z,17.30
2022-12-12T23:11:10.836Z,17.58
2022-12-12T23:13:35.628Z,15.95
2022-12-12T23:16:00.017Z,17.85
2022-12-12T23:18:26.398Z,16.40
2022-12-12T23:20:50.968Z,17.23
2022-12-12T23:23:15.576Z,15.57
2022-12-12T23:25:39.932Z,16.17
2022-12-12T23:28:06.236Z,16.38
2022-12-12T23:30:32.649Z,15.70
2022-12-12T23:32:57.320Z,16.30
2022-12-12T23:35:23.040Z,16.90
2022-12-12T23:37:47.433Z,16.98
2022-12-12T23:40:12.997Z,15.88
2022-12-12T23:42:37.369Z,16.77
2022-12-12T23:45:01.663Z,15.57
2022-12-12T23:47:27.604Z,16.77
2022-12-12T23:49:51.943Z,15.30
2022-12-12T23:52:17.779Z,14.73
2022-12-12T23:54:43.501Z,14.38
2022-12-12T23:57:07.872Z,16.73
2022-12-12T23:59:32.187Z,15.63
